sensor_id;sensor_type;location;lat;lon;timestamp;P1;durP1;ratioP1;P2;durP2;ratioP2
62574;SDS011;70119;45.638;11.714;2023-06-14T00:00:51;4.78;;;3.40;;
62574;SDS011;70119;45.638;11.714;2023-06-14T00:03:18;4.72;;;3.55;;
62574;SDS011;70119;45.638;11.714;2023-06-14T00:05:45;5.35;;;3.50;;
62574;SDS011;70119;45.638;11.714;2023-06-14T00:08:11;6.38;;;3.42;;
62574;SDS011;70119;45.638;11.714;2023-06-14T00:10:38;4.88;;;3.22;;
62574;SDS011;70119;45.638;11.714;2023-06-14T00:13:07;4.53;;;3.30;;
62574;SDS011;70119;45.638;11.714;2023-06-14T00:15:34;6.03;;;3.50;;
62574;SDS011;70119;45.638;11.714;2023-06-14T00:18:00;5.95;;;3.30;;
62574;SDS011;70119;45.638;11.714;2023-06-14T00:20:27;5.03;;;3.40;;
62574;SDS011;70119;45.638;11.714;2023-06-14T00:22:54;4.60;;;3.10;;
62574;SDS011;70119;45.638;11.714;2023-06-14T00:25:22;5.05;;;3.08;;
62574;SDS011;70119;45.638;11.714;2023-06-14T00:30:18;5.13;;;3.10;;
62574;SDS011;70119;45.638;11.714;2023-06-14T00:32:44;5.03;;;3.40;;
62574;SDS011;70119;45.638;11.714;2023-06-14T00:35:11;4.57;;;3.20;;
62574;SDS011;70119;45.638;11.714;2023-06-14T00:37:37;4.47;;;3.15;;
62574;SDS011;70119;45.638;11.714;2023-06-14T00:40:04;4.30;;;3.25;;
62574;SDS011;70119;45.638;11.714;2023-06-14T00:42:31;4.68;;;3.25;;
62574;SDS011;70119;45.638;11.714;2023-06-14T00:44:57;5.60;;;3.17;;
62574;SDS011;70119;45.638;11.714;2023-06-14T00:47:23;4.32;;;3.13;;
62574;SDS011;70119;45.638;11.714;2023-06-14T00:49:50;4.05;;;2.95;;
62574;SDS011;70119;45.638;11.714;2023-06-14T00:52:17;4.80;;;3.20;;
62574;SDS011;70119;45.638;11.714;2023-06-14T00:54:43;4.78;;;3.20;;
62574;SDS011;70119;45.638;11.714;2023-06-14T00:57:10;5.15;;;3.38;;
62574;SDS011;70119;45.638;11.714;2023-06-14T00:59:38;4.85;;;3.30;;
62574;SDS011;70119;45.638;11.714;2023-06-14T01:02:11;3.83;;;2.95;;
62574;SDS011;70119;45.638;11.714;2023-06-14T01:04:39;5.28;;;3.47;;
62574;SDS011;70119;45.638;11.714;2023-06-14T01:09:48;4.43;;;3.17;;
62574;SDS011;70119;45.638;11.714;2023-06-14T01:15:34;4.78;;;3.17;;
62574;SDS011;70119;45.638;11.714;2023-06-14T01:18:01;4.85;;;3.08;;
62574;SDS011;70119;45.638;11.714;2023-06-14T01:20:32;4.60;;;3.10;;
62574;SDS011;70119;45.638;11.714;2023-06-14T01:25:27;4.63;;;3.03;;
62574;SDS011;70119;45.638;11.714;2023-06-14T01:27:55;4.18;;;3.22;;
62574;SDS011;70119;45.638;11.714;2023-06-14T01:30:23;5.00;;;3.20;;
62574;SDS011;70119;45.638;11.714;2023-06-14T01:32:50;5.53;;;3.28;;
62574;SDS011;70119;45.638;11.714;2023-06-14T01:35:18;4.43;;;3.42;;
62574;SDS011;70119;45.638;11.714;2023-06-14T01:37:45;5.30;;;3.30;;
62574;SDS011;70119;45.638;11.714;2023-06-14T01:40:13;4.63;;;3.22;;
62574;SDS011;70119;45.638;11.714;2023-06-14T01:42:41;4.55;;;3.15;;
62574;SDS011;70119;45.638;11.714;2023-06-14T01:45:09;5.38;;;3.35;;
62574;SDS011;70119;45.638;11.714;2023-06-14T01:47:36;4.13;;;3.38;;
62574;SDS011;70119;45.638;11.714;2023-06-14T01:50:03;4.60;;;3.25;;
62574;SDS011;70119;45.638;11.714;2023-06-14T01:52:29;4.47;;;3.40;;
62574;SDS011;70119;45.638;11.714;2023-06-14T01:54:55;3.92;;;3.10;;
62574;SDS011;70119;45.638;11.714;2023-06-14T01:57:23;4.95;;;3.20;;
62574;SDS011;70119;45.638;11.714;2023-06-14T01:59:51;4.32;;;3.08;;
62574;SDS011;70119;45.638;11.714;2023-06-14T02:02:17;5.55;;;3.40;;
62574;SDS011;70119;45.638;11.714;2023-06-14T02:04:44;3.88;;;3.13;;
62574;SDS011;70119;45.638;11.714;2023-06-14T02:07:12;4.03;;;3.00;;
62574;SDS011;70119;45.638;11.714;2023-06-14T02:09:42;3.83;;;3.00;;
62574;SDS011;70119;45.638;11.714;2023-06-14T02:12:08;4.80;;;3.30;;
62574;SDS011;70119;45.638;11.714;2023-06-14T02:14:35;4.43;;;3.10;;
62574;SDS011;70119;45.638;11.714;2023-06-14T02:17:03;4.78;;;2.95;;
62574;SDS011;70119;45.638;11.714;2023-06-14T02:19:29;3.97;;;3.00;;
62574;SDS011;70119;45.638;11.714;2023-06-14T02:21:56;4.10;;;3.10;;
62574;SDS011;70119;45.638;11.714;2023-06-14T02:24:21;4.05;;;3.05;;
62574;SDS011;70119;45.638;11.714;2023-06-14T02:26:48;5.68;;;2.95;;
62574;SDS011;70119;45.638;11.714;2023-06-14T02:29:14;4.10;;;2.92;;
62574;SDS011;70119;45.638;11.714;2023-06-14T02:31:41;4.43;;;3.20;;
62574;SDS011;70119;45.638;11.714;2023-06-14T02:34:07;4.00;;;3.10;;
62574;SDS011;70119;45.638;11.714;2023-06-14T02:36:35;4.80;;;3.15;;
62574;SDS011;70119;45.638;11.714;2023-06-14T02:39:07;4.35;;;3.00;;
62574;SDS011;70119;45.638;11.714;2023-06-14T02:41:36;4.25;;;3.20;;
62574;SDS011;70119;45.638;11.714;2023-06-14T02:44:02;4.22;;;3.30;;
62574;SDS011;70119;45.638;11.714;2023-06-14T02:46:28;5.15;;;3.20;;
62574;SDS011;70119;45.638;11.714;2023-06-14T02:48:54;5.03;;;3.40;;
62574;SDS011;70119;45.638;11.714;2023-06-14T02:51:20;6.13;;;3.10;;
62574;SDS011;70119;45.638;11.714;2023-06-14T02:53:46;5.15;;;3.00;;
62574;SDS011;70119;45.638;11.714;2023-06-14T02:56:12;4.70;;;3.13;;
62574;SDS011;70119;45.638;11.714;2023-06-14T02:58:38;4.60;;;3.30;;
62574;SDS011;70119;45.638;11.714;2023-06-14T03:01:05;4.90;;;3.30;;
62574;SDS011;70119;45.638;11.714;2023-06-14T03:03:33;3.40;;;3.00;;
62574;SDS011;70119;45.638;11.714;2023-06-14T03:05:59;4.68;;;3.10;;
62574;SDS011;70119;45.638;11.714;2023-06-14T03:08:32;3.50;;;3.00;;
62574;SDS011;70119;45.638;11.714;2023-06-14T03:11:03;5.03;;;3.10;;
62574;SDS011;70119;45.638;11.714;2023-06-14T03:13:31;4.65;;;3.10;;
62574;SDS011;70119;45.638;11.714;2023-06-14T03:16:00;3.75;;;3.15;;
62574;SDS011;70119;45.638;11.714;2023-06-14T03:18:29;5.30;;;3.17;;
62574;SDS011;70119;45.638;11.714;2023-06-14T03:20:56;3.80;;;2.80;;
62574;SDS011;70119;45.638;11.714;2023-06-14T03:23:23;3.80;;;2.67;;
62574;SDS011;70119;45.638;11.714;2023-06-14T03:25:51;3.92;;;2.85;;
62574;SDS011;70119;45.638;11.714;2023-06-14T03:28:17;3.97;;;2.90;;
62574;SDS011;70119;45.638;11.714;2023-06-14T03:30:42;3.05;;;2.72;;
62574;SDS011;70119;45.638;11.714;2023-06-14T03:33:08;3.85;;;3.00;;
62574;SDS011;70119;45.638;11.714;2023-06-14T03:35:34;4.25;;;2.90;;
62574;SDS011;70119;45.638;11.714;2023-06-14T03:38:01;5.03;;;3.00;;
62574;SDS011;70119;45.638;11.714;2023-06-14T03:40:28;4.40;;;3.08;;
62574;SDS011;70119;45.638;11.714;2023-06-14T03:42:54;5.38;;;3.50;;
62574;SDS011;70119;45.638;11.714;2023-06-14T03:45:21;5.45;;;3.42;;
62574;SDS011;70119;45.638;11.714;2023-06-14T03:47:47;4.68;;;3.55;;
62574;SDS011;70119;45.638;11.714;2023-06-14T03:50:13;5.20;;;3.53;;
62574;SDS011;70119;45.638;11.714;2023-06-14T03:52:40;4.38;;;3.55;;
62574;SDS011;70119;45.638;11.714;2023-06-14T03:55:08;5.55;;;3.70;;
62574;SDS011;70119;45.638;11.714;2023-06-14T03:57:34;5.80;;;3.70;;
62574;SDS011;70119;45.638;11.714;2023-06-14T04:00:00;5.13;;;3.65;;
62574;SDS011;70119;45.638;11.714;2023-06-14T04:02:26;6.32;;;4.00;;
62574;SDS011;70119;45.638;11.714;2023-06-14T04:04:54;6.88;;;3.63;;
62574;SDS011;70119;45.638;11.714;2023-06-14T04:07:20;7.15;;;3.33;;
62574;SDS011;70119;45.638;11.714;2023-06-14T04:09:46;4.78;;;3.35;;
62574;SDS011;70119;45.638;11.714;2023-06-14T04:12:12;4.43;;;3.30;;
62574;SDS011;70119;45.638;11.714;2023-06-14T04:14:41;5.38;;;3.47;;
62574;SDS011;70119;45.638;11.714;2023-06-14T04:17:07;4.75;;;3.20;;
62574;SDS011;70119;45.638;11.714;2023-06-14T04:19:33;3.33;;;2.92;;
62574;SDS011;70119;45.638;11.714;2023-06-14T04:21:59;4.20;;;3.20;;
62574;SDS011;70119;45.638;11.714;2023-06-14T04:24:27;4.55;;;3.28;;
62574;SDS011;70119;45.638;11.714;2023-06-14T04:27:00;3.42;;;2.90;;
62574;SDS011;70119;45.638;11.714;2023-06-14T04:29:26;5.03;;;3.30;;
62574;SDS011;70119;45.638;11.714;2023-06-14T04:31:54;4.70;;;3.22;;
62574;SDS011;70119;45.638;11.714;2023-06-14T04:34:31;3.97;;;3.35;;
62574;SDS011;70119;45.638;11.714;2023-06-14T04:36:59;4.30;;;3.22;;
62574;SDS011;70119;45.638;11.714;2023-06-14T04:39:26;4.88;;;3.10;;
62574;SDS011;70119;45.638;11.714;2023-06-14T04:41:52;3.88;;;3.20;;
62574;SDS011;70119;45.638;11.714;2023-06-14T04:44:22;4.95;;;3.40;;
62574;SDS011;70119;45.638;11.714;2023-06-14T04:46:58;4.30;;;3.20;;
62574;SDS011;70119;45.638;11.714;2023-06-14T04:49:23;3.67;;;3.00;;
62574;SDS011;70119;45.638;11.714;2023-06-14T04:51:52;4.68;;;3.05;;
62574;SDS011;70119;45.638;11.714;2023-06-14T04:54:22;3.72;;;2.95;;
62574;SDS011;70119;45.638;11.714;2023-06-14T04:56:50;4.28;;;3.10;;
62574;SDS011;70119;45.638;11.714;2023-06-14T04:59:18;4.63;;;3.22;;
62574;SDS011;70119;45.638;11.714;2023-06-14T05:01:44;3.88;;;3.00;;
62574;SDS011;70119;45.638;11.714;2023-06-14T05:04:14;4.63;;;3.33;;
62574;SDS011;70119;45.638;11.714;2023-06-14T05:06:41;4.75;;;3.30;;
62574;SDS011;70119;45.638;11.714;2023-06-14T05:09:10;4.72;;;2.90;;
62574;SDS011;70119;45.638;11.714;2023-06-14T05:11:37;3.95;;;3.17;;
62574;SDS011;70119;45.638;11.714;2023-06-14T05:14:02;3.65;;;3.00;;
62574;SDS011;70119;45.638;11.714;2023-06-14T05:16:28;4.85;;;3.10;;
62574;SDS011;70119;45.638;11.714;2023-06-14T05:18:55;4.43;;;3.10;;
62574;SDS011;70119;45.638;11.714;2023-06-14T05:21:21;6.50;;;3.38;;
62574;SDS011;70119;45.638;11.714;2023-06-14T05:23:47;5.70;;;3.00;;
62574;SDS011;70119;45.638;11.714;2023-06-14T05:26:13;4.22;;;2.95;;
62574;SDS011;70119;45.638;11.714;2023-06-14T05:28:39;4.18;;;3.20;;
62574;SDS011;70119;45.638;11.714;2023-06-14T05:31:05;5.55;;;3.25;;
62574;SDS011;70119;45.638;11.714;2023-06-14T05:33:31;4.53;;;3.20;;
62574;SDS011;70119;45.638;11.714;2023-06-14T05:35:57;4.53;;;3.13;;
62574;SDS011;70119;45.638;11.714;2023-06-14T05:38:23;4.82;;;3.05;;
62574;SDS011;70119;45.638;11.714;2023-06-14T05:40:49;3.72;;;2.90;;
62574;SDS011;70119;45.638;11.714;2023-06-14T05:43:15;6.35;;;3.33;;
62574;SDS011;70119;45.638;11.714;2023-06-14T05:45:41;4.90;;;3.33;;
62574;SDS011;70119;45.638;11.714;2023-06-14T05:48:07;7.63;;;3.42;;
62574;SDS011;70119;45.638;11.714;2023-06-14T05:50:33;4.47;;;3.05;;
62574;SDS011;70119;45.638;11.714;2023-06-14T05:52:59;5.03;;;3.30;;
62574;SDS011;70119;45.638;11.714;2023-06-14T05:55:25;3.75;;;3.10;;
62574;SDS011;70119;45.638;11.714;2023-06-14T05:57:51;4.20;;;3.05;;
62574;SDS011;70119;45.638;11.714;2023-06-14T06:00:17;4.60;;;3.20;;
62574;SDS011;70119;45.638;11.714;2023-06-14T06:02:45;4.38;;;3.33;;
62574;SDS011;70119;45.638;11.714;2023-06-14T06:05:12;5.07;;;3.22;;
62574;SDS011;70119;45.638;11.714;2023-06-14T06:07:40;5.13;;;3.40;;
62574;SDS011;70119;45.638;11.714;2023-06-14T06:10:06;4.55;;;3.30;;
62574;SDS011;70119;45.638;11.714;2023-06-14T06:12:33;5.55;;;3.10;;
62574;SDS011;70119;45.638;11.714;2023-06-14T06:14:59;4.47;;;3.30;;
62574;SDS011;70119;45.638;11.714;2023-06-14T06:17:25;4.22;;;2.97;;
62574;SDS011;70119;45.638;11.714;2023-06-14T06:19:52;4.25;;;3.17;;
62574;SDS011;70119;45.638;11.714;2023-06-14T06:22:19;5.20;;;3.10;;
62574;SDS011;70119;45.638;11.714;2023-06-14T06:24:45;5.25;;;3.13;;
62574;SDS011;70119;45.638;11.714;2023-06-14T06:27:11;4.63;;;3.35;;
62574;SDS011;70119;45.638;11.714;2023-06-14T06:29:37;4.75;;;3.05;;
62574;SDS011;70119;45.638;11.714;2023-06-14T06:32:05;4.15;;;3.20;;
62574;SDS011;70119;45.638;11.714;2023-06-14T06:34:32;4.00;;;3.10;;
62574;SDS011;70119;45.638;11.714;2023-06-14T06:36:59;4.63;;;3.08;;
62574;SDS011;70119;45.638;11.714;2023-06-14T06:39:27;4.97;;;3.30;;
62574;SDS011;70119;45.638;11.714;2023-06-14T06:41:54;4.47;;;3.00;;
62574;SDS011;70119;45.638;11.714;2023-06-14T06:44:22;4.80;;;3.08;;
62574;SDS011;70119;45.638;11.714;2023-06-14T06:46:48;4.72;;;3.15;;
62574;SDS011;70119;45.638;11.714;2023-06-14T06:49:14;5.30;;;3.30;;
62574;SDS011;70119;45.638;11.714;2023-06-14T06:52:00;4.43;;;3.30;;
62574;SDS011;70119;45.638;11.714;2023-06-14T06:54:28;3.72;;;3.00;;
62574;SDS011;70119;45.638;11.714;2023-06-14T06:56:56;4.18;;;3.30;;
62574;SDS011;70119;45.638;11.714;2023-06-14T06:59:26;4.97;;;3.20;;
62574;SDS011;70119;45.638;11.714;2023-06-14T07:01:55;5.20;;;3.17;;
62574;SDS011;70119;45.638;11.714;2023-06-14T07:04:22;4.88;;;3.40;;
62574;SDS011;70119;45.638;11.714;2023-06-14T07:06:51;4.25;;;3.35;;
62574;SDS011;70119;45.638;11.714;2023-06-14T07:09:18;4.47;;;3.20;;
62574;SDS011;70119;45.638;11.714;2023-06-14T07:11:46;5.32;;;3.50;;
62574;SDS011;70119;45.638;11.714;2023-06-14T07:14:14;5.60;;;3.22;;
62574;SDS011;70119;45.638;11.714;2023-06-14T07:16:40;4.53;;;3.22;;
62574;SDS011;70119;45.638;11.714;2023-06-14T07:19:06;5.43;;;2.95;;
62574;SDS011;70119;45.638;11.714;2023-06-14T07:21:34;4.85;;;3.13;;
62574;SDS011;70119;45.638;11.714;2023-06-14T07:24:00;4.72;;;3.00;;
62574;SDS011;70119;45.638;11.714;2023-06-14T07:26:26;3.80;;;2.92;;
62574;SDS011;70119;45.638;11.714;2023-06-14T07:28:52;5.00;;;3.40;;
62574;SDS011;70119;45.638;11.714;2023-06-14T07:31:18;4.60;;;2.95;;
62574;SDS011;70119;45.638;11.714;2023-06-14T07:33:44;5.68;;;3.00;;
62574;SDS011;70119;45.638;11.714;2023-06-14T07:36:11;5.00;;;2.88;;
62574;SDS011;70119;45.638;11.714;2023-06-14T07:38:36;4.35;;;3.08;;
62574;SDS011;70119;45.638;11.714;2023-06-14T07:41:02;4.88;;;3.13;;
62574;SDS011;70119;45.638;11.714;2023-06-14T07:43:29;4.70;;;3.20;;
62574;SDS011;70119;45.638;11.714;2023-06-14T07:45:55;4.60;;;3.00;;
62574;SDS011;70119;45.638;11.714;2023-06-14T07:48:22;10.43;;;3.47;;
62574;SDS011;70119;45.638;11.714;2023-06-14T07:50:48;5.25;;;3.05;;
62574;SDS011;70119;45.638;11.714;2023-06-14T07:53:14;4.03;;;2.90;;
62574;SDS011;70119;45.638;11.714;2023-06-14T07:55:40;5.18;;;3.22;;
62574;SDS011;70119;45.638;11.714;2023-06-14T07:58:08;6.00;;;3.20;;
62574;SDS011;70119;45.638;11.714;2023-06-14T08:00:35;4.57;;;2.85;;
62574;SDS011;70119;45.638;11.714;2023-06-14T08:03:01;4.95;;;3.20;;
62574;SDS011;70119;45.638;11.714;2023-06-14T08:05:28;5.30;;;3.30;;
62574;SDS011;70119;45.638;11.714;2023-06-14T08:07:54;4.47;;;3.25;;
62574;SDS011;70119;45.638;11.714;2023-06-14T08:10:20;5.57;;;3.28;;
62574;SDS011;70119;45.638;11.714;2023-06-14T08:12:47;4.93;;;3.30;;
62574;SDS011;70119;45.638;11.714;2023-06-14T08:21:58;6.78;;;3.40;;
62574;SDS011;70119;45.638;11.714;2023-06-14T08:24:25;4.60;;;3.30;;
62574;SDS011;70119;45.638;11.714;2023-06-14T08:26:52;4.55;;;3.55;;
62574;SDS011;70119;45.638;11.714;2023-06-14T08:29:19;5.35;;;3.50;;
62574;SDS011;70119;45.638;11.714;2023-06-14T08:31:45;6.47;;;3.38;;
62574;SDS011;70119;45.638;11.714;2023-06-14T08:34:12;5.93;;;3.55;;
62574;SDS011;70119;45.638;11.714;2023-06-14T08:36:37;6.05;;;3.47;;
62574;SDS011;70119;45.638;11.714;2023-06-14T08:39:03;4.38;;;3.40;;
62574;SDS011;70119;45.638;11.714;2023-06-14T08:41:29;5.60;;;3.40;;
62574;SDS011;70119;45.638;11.714;2023-06-14T08:43:56;4.97;;;3.63;;
62574;SDS011;70119;45.638;11.714;2023-06-14T08:46:22;5.68;;;3.50;;
62574;SDS011;70119;45.638;11.714;2023-06-14T08:48:52;4.95;;;3.72;;
62574;SDS011;70119;45.638;11.714;2023-06-14T08:51:25;4.70;;;3.50;;
62574;SDS011;70119;45.638;11.714;2023-06-14T08:53:53;4.55;;;3.45;;
62574;SDS011;70119;45.638;11.714;2023-06-14T08:56:25;4.53;;;3.30;;
62574;SDS011;70119;45.638;11.714;2023-06-14T08:58:52;5.30;;;3.60;;
62574;SDS011;70119;45.638;11.714;2023-06-14T09:01:19;4.57;;;3.40;;
62574;SDS011;70119;45.638;11.714;2023-06-14T09:03:47;6.32;;;3.55;;
62574;SDS011;70119;45.638;11.714;2023-06-14T09:06:14;5.10;;;3.70;;
62574;SDS011;70119;45.638;11.714;2023-06-14T09:08:42;5.13;;;3.63;;
62574;SDS011;70119;45.638;11.714;2023-06-14T09:11:12;4.38;;;3.22;;
62574;SDS011;70119;45.638;11.714;2023-06-14T09:13:39;9.33;;;3.70;;
62574;SDS011;70119;45.638;11.714;2023-06-14T09:16:06;5.20;;;3.58;;
62574;SDS011;70119;45.638;11.714;2023-06-14T09:18:43;5.65;;;3.70;;
62574;SDS011;70119;45.638;11.714;2023-06-14T09:21:13;5.85;;;3.63;;
62574;SDS011;70119;45.638;11.714;2023-06-14T09:23:43;5.28;;;3.65;;
62574;SDS011;70119;45.638;11.714;2023-06-14T09:26:14;5.20;;;3.50;;
62574;SDS011;70119;45.638;11.714;2023-06-14T09:31:10;5.25;;;3.53;;
62574;SDS011;70119;45.638;11.714;2023-06-14T09:33:37;5.55;;;3.70;;
62574;SDS011;70119;45.638;11.714;2023-06-14T09:36:03;6.18;;;3.90;;
62574;SDS011;70119;45.638;11.714;2023-06-14T09:38:34;6.35;;;3.55;;
62574;SDS011;70119;45.638;11.714;2023-06-14T09:41:00;6.60;;;3.80;;
62574;SDS011;70119;45.638;11.714;2023-06-14T09:43:29;4.70;;;3.67;;
62574;SDS011;70119;45.638;11.714;2023-06-14T09:45:55;5.90;;;3.83;;
62574;SDS011;70119;45.638;11.714;2023-06-14T09:48:21;6.63;;;3.78;;
62574;SDS011;70119;45.638;11.714;2023-06-14T09:50:47;5.07;;;3.40;;
62574;SDS011;70119;45.638;11.714;2023-06-14T09:53:15;4.57;;;3.35;;
62574;SDS011;70119;45.638;11.714;2023-06-14T09:55:43;5.35;;;3.88;;
62574;SDS011;70119;45.638;11.714;2023-06-14T09:58:10;6.18;;;3.95;;
62574;SDS011;70119;45.638;11.714;2023-06-14T10:00:37;5.30;;;3.38;;
62574;SDS011;70119;45.638;11.714;2023-06-14T10:03:13;5.00;;;3.83;;
62574;SDS011;70119;45.638;11.714;2023-06-14T10:05:46;4.95;;;3.70;;
62574;SDS011;70119;45.638;11.714;2023-06-14T10:08:19;7.55;;;4.00;;
62574;SDS011;70119;45.638;11.714;2023-06-14T10:10:47;5.25;;;3.85;;
62574;SDS011;70119;45.638;11.714;2023-06-14T10:13:13;10.65;;;4.30;;
62574;SDS011;70119;45.638;11.714;2023-06-14T10:15:55;6.43;;;3.78;;
62574;SDS011;70119;45.638;11.714;2023-06-14T10:18:51;6.38;;;3.78;;
62574;SDS011;70119;45.638;11.714;2023-06-14T10:24:07;7.15;;;3.92;;
62574;SDS011;70119;45.638;11.714;2023-06-14T10:26:49;7.13;;;3.95;;
62574;SDS011;70119;45.638;11.714;2023-06-14T10:29:20;8.60;;;4.10;;
62574;SDS011;70119;45.638;11.714;2023-06-14T10:31:50;6.10;;;3.63;;
62574;SDS011;70119;45.638;11.714;2023-06-14T10:34:24;6.47;;;4.07;;
62574;SDS011;70119;45.638;11.714;2023-06-14T10:39:37;7.25;;;4.18;;
62574;SDS011;70119;45.638;11.714;2023-06-14T10:42:08;6.47;;;4.30;;
62574;SDS011;70119;45.638;11.714;2023-06-14T10:44:51;7.10;;;3.88;;
62574;SDS011;70119;45.638;11.714;2023-06-14T10:47:25;5.80;;;4.00;;
62574;SDS011;70119;45.638;11.714;2023-06-14T10:49:55;5.57;;;3.67;;
62574;SDS011;70119;45.638;11.714;2023-06-14T10:52:32;5.95;;;3.60;;
62574;SDS011;70119;45.638;11.714;2023-06-14T10:55:09;5.68;;;3.80;;
62574;SDS011;70119;45.638;11.714;2023-06-14T10:57:51;5.85;;;3.67;;
62574;SDS011;70119;45.638;11.714;2023-06-14T11:00:23;7.95;;;3.90;;
62574;SDS011;70119;45.638;11.714;2023-06-14T11:05:24;6.38;;;3.80;;
62574;SDS011;70119;45.638;11.714;2023-06-14T11:10:38;4.75;;;3.45;;
62574;SDS011;70119;45.638;11.714;2023-06-14T11:13:06;5.25;;;3.90;;
62574;SDS011;70119;45.638;11.714;2023-06-14T11:15:33;6.00;;;3.65;;
62574;SDS011;70119;45.638;11.714;2023-06-14T11:18:07;6.03;;;4.00;;
62574;SDS011;70119;45.638;11.714;2023-06-14T11:20:35;7.45;;;4.07;;
62574;SDS011;70119;45.638;11.714;2023-06-14T11:23:02;6.70;;;3.92;;
62574;SDS011;70119;45.638;11.714;2023-06-14T11:25:29;4.88;;;3.65;;
62574;SDS011;70119;45.638;11.714;2023-06-14T11:27:55;4.38;;;3.55;;
62574;SDS011;70119;45.638;11.714;2023-06-14T11:30:22;5.53;;;3.90;;
62574;SDS011;70119;45.638;11.714;2023-06-14T11:32:51;5.65;;;3.60;;
62574;SDS011;70119;45.638;11.714;2023-06-14T11:35:17;5.28;;;3.63;;
62574;SDS011;70119;45.638;11.714;2023-06-14T11:37:45;4.55;;;3.40;;
62574;SDS011;70119;45.638;11.714;2023-06-14T11:40:11;7.05;;;3.40;;
62574;SDS011;70119;45.638;11.714;2023-06-14T11:42:40;4.53;;;3.65;;
62574;SDS011;70119;45.638;11.714;2023-06-14T11:45:07;4.93;;;3.63;;
62574;SDS011;70119;45.638;11.714;2023-06-14T11:47:34;4.43;;;3.50;;
62574;SDS011;70119;45.638;11.714;2023-06-14T11:50:01;4.70;;;3.65;;
62574;SDS011;70119;45.638;11.714;2023-06-14T11:52:29;6.75;;;3.78;;
62574;SDS011;70119;45.638;11.714;2023-06-14T11:54:56;6.68;;;3.40;;
62574;SDS011;70119;45.638;11.714;2023-06-14T11:57:24;4.65;;;3.33;;
62574;SDS011;70119;45.638;11.714;2023-06-14T11:59:50;5.20;;;3.58;;
62574;SDS011;70119;45.638;11.714;2023-06-14T12:02:17;5.57;;;3.63;;
62574;SDS011;70119;45.638;11.714;2023-06-14T12:04:47;5.78;;;3.58;;
62574;SDS011;70119;45.638;11.714;2023-06-14T12:07:14;6.72;;;3.80;;
62574;SDS011;70119;45.638;11.714;2023-06-14T12:09:43;6.97;;;3.80;;
62574;SDS011;70119;45.638;11.714;2023-06-14T12:12:34;5.45;;;3.78;;
62574;SDS011;70119;45.638;11.714;2023-06-14T12:15:03;5.43;;;3.80;;
62574;SDS011;70119;45.638;11.714;2023-06-14T12:17:33;4.72;;;3.83;;
62574;SDS011;70119;45.638;11.714;2023-06-14T12:20:19;5.10;;;3.72;;
62574;SDS011;70119;45.638;11.714;2023-06-14T12:22:53;5.97;;;3.53;;
62574;SDS011;70119;45.638;11.714;2023-06-14T12:25:26;5.65;;;3.80;;
62574;SDS011;70119;45.638;11.714;2023-06-14T12:27:56;5.07;;;3.53;;
62574;SDS011;70119;45.638;11.714;2023-06-14T12:30:23;4.85;;;3.63;;
62574;SDS011;70119;45.638;11.714;2023-06-14T12:32:49;5.90;;;3.75;;
62574;SDS011;70119;45.638;11.714;2023-06-14T12:35:17;6.00;;;3.90;;
62574;SDS011;70119;45.638;11.714;2023-06-14T12:37:46;5.78;;;3.75;;
62574;SDS011;70119;45.638;11.714;2023-06-14T12:40:12;4.80;;;3.78;;
62574;SDS011;70119;45.638;11.714;2023-06-14T12:42:39;5.10;;;4.00;;
62574;SDS011;70119;45.638;11.714;2023-06-14T12:45:06;5.47;;;3.85;;
62574;SDS011;70119;45.638;11.714;2023-06-14T12:47:32;5.03;;;3.90;;
62574;SDS011;70119;45.638;11.714;2023-06-14T12:49:58;6.65;;;4.07;;
62574;SDS011;70119;45.638;11.714;2023-06-14T12:52:24;4.68;;;3.58;;
62574;SDS011;70119;45.638;11.714;2023-06-14T12:54:50;5.50;;;3.95;;
62574;SDS011;70119;45.638;11.714;2023-06-14T12:57:16;7.82;;;3.90;;
62574;SDS011;70119;45.638;11.714;2023-06-14T12:59:43;5.88;;;3.70;;
62574;SDS011;70119;45.638;11.714;2023-06-14T13:02:16;6.18;;;4.00;;
62574;SDS011;70119;45.638;11.714;2023-06-14T13:04:43;5.15;;;3.92;;
62574;SDS011;70119;45.638;11.714;2023-06-14T13:07:10;5.05;;;3.60;;
62574;SDS011;70119;45.638;11.714;2023-06-14T13:09:36;5.88;;;3.90;;
62574;SDS011;70119;45.638;11.714;2023-06-14T13:12:02;5.85;;;4.03;;
62574;SDS011;70119;45.638;11.714;2023-06-14T13:14:29;7.07;;;3.80;;
62574;SDS011;70119;45.638;11.714;2023-06-14T13:16:55;5.80;;;3.70;;
62574;SDS011;70119;45.638;11.714;2023-06-14T13:19:21;5.88;;;3.78;;
62574;SDS011;70119;45.638;11.714;2023-06-14T13:21:47;5.75;;;3.97;;
62574;SDS011;70119;45.638;11.714;2023-06-14T13:24:13;5.43;;;3.58;;
62574;SDS011;70119;45.638;11.714;2023-06-14T13:26:40;4.60;;;3.60;;
62574;SDS011;70119;45.638;11.714;2023-06-14T13:29:06;5.05;;;3.70;;
62574;SDS011;70119;45.638;11.714;2023-06-14T13:31:32;5.40;;;3.60;;
62574;SDS011;70119;45.638;11.714;2023-06-14T13:33:58;5.05;;;3.80;;
62574;SDS011;70119;45.638;11.714;2023-06-14T13:36:24;5.68;;;3.78;;
62574;SDS011;70119;45.638;11.714;2023-06-14T13:38:50;4.90;;;3.55;;
62574;SDS011;70119;45.638;11.714;2023-06-14T13:41:18;4.80;;;3.42;;
62574;SDS011;70119;45.638;11.714;2023-06-14T13:43:44;4.55;;;3.60;;
62574;SDS011;70119;45.638;11.714;2023-06-14T13:46:10;9.77;;;3.92;;
62574;SDS011;70119;45.638;11.714;2023-06-14T13:48:36;4.95;;;3.65;;
62574;SDS011;70119;45.638;11.714;2023-06-14T13:51:02;4.78;;;3.47;;
62574;SDS011;70119;45.638;11.714;2023-06-14T13:53:29;5.95;;;3.70;;
62574;SDS011;70119;45.638;11.714;2023-06-14T13:55:55;5.82;;;3.60;;
62574;SDS011;70119;45.638;11.714;2023-06-14T13:58:21;4.95;;;3.90;;
62574;SDS011;70119;45.638;11.714;2023-06-14T14:00:49;5.85;;;3.90;;
62574;SDS011;70119;45.638;11.714;2023-06-14T14:03:16;5.80;;;3.50;;
62574;SDS011;70119;45.638;11.714;2023-06-14T14:05:41;5.05;;;3.42;;
62574;SDS011;70119;45.638;11.714;2023-06-14T14:08:07;5.43;;;3.80;;
62574;SDS011;70119;45.638;11.714;2023-06-14T14:10:33;5.20;;;3.80;;
62574;SDS011;70119;45.638;11.714;2023-06-14T14:12:59;5.28;;;3.72;;
62574;SDS011;70119;45.638;11.714;2023-06-14T14:15:26;4.97;;;3.60;;
62574;SDS011;70119;45.638;11.714;2023-06-14T14:17:53;5.18;;;3.53;;
62574;SDS011;70119;45.638;11.714;2023-06-14T14:20:19;5.53;;;3.60;;
62574;SDS011;70119;45.638;11.714;2023-06-14T14:22:45;5.15;;;3.85;;
62574;SDS011;70119;45.638;11.714;2023-06-14T14:25:11;5.28;;;3.83;;
62574;SDS011;70119;45.638;11.714;2023-06-14T14:27:37;7.28;;;3.60;;
62574;SDS011;70119;45.638;11.714;2023-06-14T14:30:04;5.22;;;3.60;;
62574;SDS011;70119;45.638;11.714;2023-06-14T14:32:30;5.03;;;3.75;;
62574;SDS011;70119;45.638;11.714;2023-06-14T14:34:57;4.75;;;3.60;;
62574;SDS011;70119;45.638;11.714;2023-06-14T14:37:23;5.47;;;3.50;;
62574;SDS011;70119;45.638;11.714;2023-06-14T14:39:49;8.93;;;3.67;;
62574;SDS011;70119;45.638;11.714;2023-06-14T14:42:15;6.53;;;4.00;;
62574;SDS011;70119;45.638;11.714;2023-06-14T14:44:41;6.47;;;4.00;;
62574;SDS011;70119;45.638;11.714;2023-06-14T14:47:07;5.03;;;3.55;;
62574;SDS011;70119;45.638;11.714;2023-06-14T14:49:33;5.63;;;3.65;;
62574;SDS011;70119;45.638;11.714;2023-06-14T14:51:59;5.50;;;3.90;;
62574;SDS011;70119;45.638;11.714;2023-06-14T14:54:25;5.43;;;3.47;;
62574;SDS011;70119;45.638;11.714;2023-06-14T14:56:53;5.13;;;3.55;;
62574;SDS011;70119;45.638;11.714;2023-06-14T14:59:20;7.90;;;3.92;;
62574;SDS011;70119;45.638;11.714;2023-06-14T15:01:47;4.22;;;3.35;;
62574;SDS011;70119;45.638;11.714;2023-06-14T15:04:13;4.75;;;3.50;;
62574;SDS011;70119;45.638;11.714;2023-06-14T15:06:39;4.55;;;3.42;;